Alton, IL

03:03 AM CST am 24. Januar 2017 (GMT -0600)
Alton - Christian Hill Area | | Change Station

Höhe 610 ft 38.90 °N, 90.19 °W | Updated 3 minutes ago

Bedeckt
Bedeckt
36.9 °F
gefühlte 37 °F
N
0.0
Wind Wechselnd Wind aus West-Nordwest
Gusts 0.0 mph

Heute
Max. -- | schwach -- °F
--% Regenrisiko
Gestern
Max. -- | schwach -- °F
Precip. -- inch
Druck 29.89 inch
Sichtweite 10.0 Meilen
Wolken Bedeckt 1700 ft
Windchill 37 °F
Taupunkt 31 °F
Feuchtigkeit 79%
Regen 0.00 inch
Schneehöhe Nicht verfügbar..
7:12 AM 5:13 PM
Letztes Viertel, 13% visible
METAR KALN 240855Z AUTO 00000KT 10SM OVC017 03/00 A2989 RMK AO2 T00290002
Druck 29.89 inch
Sichtweite 10.0 Meilen
Wolken Bedeckt 1700 ft
Windchill 37 °F
Taupunkt 31 °F
Feuchtigkeit 79%
Regen 0.00 inch
Schneehöhe Nicht verfügbar..
7:12 AM 5:13 PM
Letztes Viertel, 13% visible
METAR KALN 240855Z AUTO 00000KT 10SM OVC017 03/00 A2989 RMK AO2 T00290002

Get Your Daily Forecast Email!

Thanks for signing up!

Be on the lookout for a verification email in your inbox.

You'll start receiving the daily forecast at 8 AM.

×

10-Day Weather Forecast

Almanac

Astronomie

Jan. 24, 2017 Aufgang Untergang
Genaue Zeit
Bürgerliche Dämmerung
Nautische Dämmerung
Astronomische Dämmerung
Mond
Länge des sichtbaren Lichts
Tageslänge
Tomorrow will be .
, % of the Moon is Illuminated

Heutige Rekorde

State Highs State Lows

Community

WunderPhotos

Upload Photos

1,962,540 Fotos hochgeladen!

WunderBlog® & News

Nearby

Luftqualität

  Luftqualität LQ Index Schadstoff
Not available.

Schneehöhe

Station Depth Höhe

Erdbebenaktivität

Stadt Distance Mag. Time & Date
Minimum magnitude displayed is 2.5.

küstennahe Wassertemperaturen

Ort Temperatur

Stations

Wetterstationen in der Umgebung

Stationsstandort Temp. Windchill Taupunkt Feuchtigkeit Wind Precip. Höhe Aktualisiert Art
                   

Watches & Warnings

There are currently no watches in effect.